Time;durP1;ratioP1;P1;durP2;ratioP2;P2;SDS_P1;SDS_P2;PMS_P1;PMS_P2;Temp;Humidity;BMP_temperature;BMP_pressure;BME280_temperature;BME280_humidity;BME280_pressure;Samples;Min_cycle;Max_cycle;Signal;HPM_P1;HPM_P2
2023/09/27 00:01:49;;;;;;;6.35;3.72;;;15.90;99.90;;;16.45;70.88;100936.25;4851658;29;20114;-84
2023/09/27 00:04:16;;;;;;;5.47;3.72;;;15.90;99.90;;;16.45;70.61;100936.25;4857531;29;20141;-85
2023/09/27 00:06:45;;;;;;;5.90;3.70;;;15.90;99.90;;;16.44;70.77;100940.00;4852808;29;20049;-84
2023/09/27 00:09:13;;;;;;;8.15;4.10;;;15.90;99.90;;;16.42;70.94;100950.19;4855624;29;20045;-85
2023/09/27 00:11:42;;;;;;;6.25;4.03;;;15.90;99.90;;;16.42;70.86;100947.50;4863837;29;20041;-85
2023/09/27 00:14:09;;;;;;;7.57;4.00;;;15.80;99.90;;;16.38;70.75;100946.34;4859332;29;20200;-84
2023/09/27 00:16:37;;;;;;;7.70;4.63;;;15.80;99.90;;;16.38;70.61;100945.53;4847488;29;20061;-84
2023/09/27 00:19:05;;;;;;;11.80;4.03;;;15.80;99.90;;;16.35;70.60;100933.38;4855538;29;20056;-84
2023/09/27 00:21:33;;;;;;;6.68;4.45;;;15.80;99.90;;;16.36;70.61;100934.19;4876903;29;20128;-84
2023/09/27 00:24:02;;;;;;;8.75;4.32;;;15.80;99.90;;;16.36;70.64;100932.31;4847605;29;20052;-85
2023/09/27 00:26:29;;;;;;;6.95;4.15;;;15.80;99.90;;;16.35;70.58;100929.88;4844439;29;20049;-84
2023/09/27 00:28:57;;;;;;;6.20;4.35;;;15.80;99.90;;;16.35;70.82;100935.25;4870570;29;20056;-85
2023/09/27 00:31:25;;;;;;;6.82;4.60;;;15.80;99.90;;;16.35;70.49;100943.31;4849931;29;20074;-84
2023/09/27 00:33:52;;;;;;;6.55;4.32;;;15.80;99.90;;;16.33;70.40;100948.09;4846772;29;20056;-84
2023/09/27 00:36:20;;;;;;;11.32;5.00;;;15.80;99.90;;;16.29;70.44;100952.31;4819139;29;20492;-84
2023/09/27 00:38:47;;;;;;;7.78;4.15;;;15.70;99.90;;;16.28;70.31;100953.38;4837809;29;20504;-84
2023/09/27 00:41:19;;;;;;;8.07;4.50;;;15.70;99.90;;;16.26;70.46;100947.44;4848724;29;20519;-85
2023/09/27 00:43:48;;;;;;;7.45;4.22;;;15.70;99.90;;;16.22;70.46;100955.16;4835921;29;20077;-84
2023/09/27 00:46:17;;;;;;;6.85;4.45;;;15.70;99.90;;;16.19;70.37;100958.31;4865245;29;20469;-84
2023/09/27 00:48:47;;;;;;;6.43;4.00;;;15.60;99.90;;;16.16;70.70;100961.50;4866103;29;20082;-84
2023/09/27 00:51:15;;;;;;;7.95;4.35;;;15.60;99.90;;;16.15;70.60;100968.75;4837164;29;20101;-85
2023/09/27 00:53:45;;;;;;;7.75;3.92;;;15.60;99.90;;;16.14;71.10;100972.47;4847773;29;20073;-84
2023/09/27 00:56:12;;;;;;;10.07;4.30;;;15.60;99.90;;;16.13;71.07;100973.53;4849451;29;20087;-84
2023/09/27 00:58:42;;;;;;;7.22;3.53;;;15.60;99.90;;;16.13;71.21;100978.09;4852088;29;20509;-84
2023/09/27 01:01:13;;;;;;;6.82;3.75;;;15.60;99.90;;;16.15;71.20;100981.34;4835059;29;20498;-85
2023/09/27 01:03:42;;;;;;;10.05;4.32;;;15.60;99.90;;;16.15;71.32;100981.34;4864064;29;20064;-84
2023/09/27 01:06:11;;;;;;;6.22;4.32;;;15.60;99.90;;;16.12;71.32;100984.53;4839382;29;20046;-85
2023/09/27 01:08:39;;;;;;;8.70;4.25;;;15.60;99.90;;;16.12;71.48;100977.28;4856000;29;20070;-84
2023/09/27 01:11:10;;;;;;;8.50;4.28;;;15.50;99.90;;;16.14;71.57;100985.94;4850874;29;20483;-84
2023/09/27 01:13:38;;;;;;;8.88;4.43;;;15.60;99.90;;;16.13;71.79;100984.28;4846765;29;20057;-84
2023/09/27 01:16:07;;;;;;;9.48;4.68;;;15.50;99.90;;;16.12;71.84;100989.91;4836741;29;20838;-85
2023/09/27 01:18:35;;;;;;;10.32;4.25;;;15.60;99.90;;;16.11;72.00;100989.09;4838008;29;20069;-84
2023/09/27 01:21:03;;;;;;;7.70;4.40;;;15.60;99.90;;;16.12;72.00;100989.91;4862466;29;20120;-84
2023/09/27 01:23:32;;;;;;;9.02;4.63;;;15.60;99.90;;;16.14;72.07;100995.88;4843182;29;20065;-84
2023/09/27 01:26:01;;;;;;;8.27;4.60;;;15.60;99.90;;;16.13;72.10;100996.94;4865673;29;20129;-85
2023/09/27 01:28:32;;;;;;;7.57;4.55;;;15.60;99.90;;;16.16;72.20;101004.53;4831085;29;20049;-84
2023/09/27 01:31:00;;;;;;;8.00;4.82;;;15.70;99.90;;;16.18;72.18;101002.44;4847260;29;20509;-84
2023/09/27 01:33:27;;;;;;;9.82;4.53;;;15.70;99.90;;;16.18;72.00;100991.66;4849258;29;20054;-85
2023/09/27 01:35:57;;;;;;;8.70;5.00;;;15.70;99.90;;;16.19;72.18;100988.72;4853951;29;20063;-84
2023/09/27 01:38:25;;;;;;;10.57;4.75;;;15.70;99.90;;;16.19;72.16;100983.34;4858737;29;20156;-85
2023/09/27 01:40:53;;;;;;;7.90;5.15;;;15.70;99.90;;;16.19;72.32;100979.84;4840541;29;20053;-85
2023/09/27 01:43:22;;;;;;;6.15;4.40;;;15.60;99.90;;;16.19;72.38;100995.97;4849041;29;20045;-85
2023/09/27 01:45:50;;;;;;;7.28;4.22;;;15.70;99.90;;;16.14;72.61;100995.88;4837974;29;20068;-85
2023/09/27 01:48:18;;;;;;;9.60;4.63;;;15.60;99.90;;;16.13;72.80;101002.31;4851333;29;20050;-85
2023/09/27 01:50:46;;;;;;;6.72;4.18;;;15.60;99.90;;;16.11;72.72;101010.63;4843090;29;20581;-85
2023/09/27 01:53:13;;;;;;;9.18;4.20;;;15.60;99.90;;;16.12;72.55;101004.19;4832818;29;20041;-85
2023/09/27 01:55:41;;;;;;;6.70;4.20;;;15.60;99.90;;;16.09;72.63;101006.53;4868319;29;20057;-84
2023/09/27 01:58:11;;;;;;;12.00;4.75;;;15.60;99.90;;;16.09;72.56;101004.66;4828353;29;20049;-84
2023/09/27 02:00:38;;;;;;;6.90;4.60;;;15.60;99.90;;;16.09;72.60;101007.34;4873346;29;20104;-84
2023/09/27 02:03:06;;;;;;;6.53;4.43;;;15.60;99.90;;;16.10;72.84;101002.78;4844105;29;20140;-84
2023/09/27 02:05:34;;;;;;;9.10;4.60;;;15.60;99.90;;;16.10;72.86;100994.69;4869251;29;20049;-84
2023/09/27 02:08:02;;;;;;;6.93;4.30;;;15.50;99.90;;;16.10;72.61;100981.25;4859450;29;20073;-84
2023/09/27 02:10:30;;;;;;;6.80;4.57;;;15.60;99.90;;;16.12;72.44;100992.59;4846465;29;20102;-85
2023/09/27 02:12:57;;;;;;;8.80;4.80;;;15.60;99.90;;;16.09;72.51;101001.97;4847914;29;20053;-85
2023/09/27 02:15:26;;;;;;;8.80;4.63;;;15.60;99.90;;;16.09;72.64;101009.22;4868469;29;20132;-84
2023/09/27 02:17:53;;;;;;;10.13;5.00;;;15.50;99.90;;;16.04;72.52;101001.84;4828458;29;20470;-84
2023/09/27 02:20:23;;;;;;;6.38;3.92;;;15.60;99.90;;;16.02;72.39;101001.28;4861484;29;20068;-84
2023/09/27 02:22:54;;;;;;;8.38;5.05;;;15.50;99.90;;;16.04;72.53;101003.72;4847227;29;20623;-84
2023/09/27 02:25:22;;;;;;;7.43;4.82;;;15.50;99.90;;;16.01;72.33;101007.72;4837722;29;20128;-85
2023/09/27 02:27:50;;;;;;;7.00;4.35;;;15.50;99.90;;;16.02;72.14;101008.53;4873617;29;20509;-84
2023/09/27 02:30:17;;;;;;;8.38;4.55;;;15.50;99.90;;;16.03;71.89;101013.66;4870938;29;20572;-84
2023/09/27 02:32:47;;;;;;;7.53;4.97;;;15.50;99.90;;;15.99;71.85;101015.19;4871018;29;20045;-84
2023/09/27 02:35:15;;;;;;;9.20;4.60;;;15.40;99.90;;;15.98;71.84;100999.28;4852420;29;20469;-84
2023/09/27 02:37:48;;;;;;;8.95;4.70;;;15.50;99.90;;;15.94;71.49;101005.13;4841323;29;20057;-84
2023/09/27 02:40:17;;;;;;;10.95;4.90;;;15.40;99.90;;;15.90;71.59;100989.66;4844966;29;20105;-84
2023/09/27 02:42:46;;;;;;;9.15;5.10;;;15.40;99.90;;;15.88;71.73;100997.97;4839317;29;20056;-85
2023/09/27 02:45:14;;;;;;;13.07;5.28;;;15.30;99.90;;;15.87;71.38;101004.44;4853126;29;20113;-84
2023/09/27 02:47:45;;;;;;;8.18;4.78;;;15.30;99.90;;;15.86;71.71;100981.28;4849307;29;20120;-85
2023/09/27 02:50:15;;;;;;;8.38;4.93;;;15.20;99.90;;;15.85;71.65;100970.72;4861970;29;20064;-84
2023/09/27 02:52:43;;;;;;;7.60;4.90;;;15.30;99.90;;;15.86;71.96;100967.81;4848136;29;20120;-84
2023/09/27 02:55:12;;;;;;;8.95;5.47;;;15.30;99.90;;;15.85;71.80;100962.66;4845394;29;20060;-84
2023/09/27 02:57:42;;;;;;;8.32;5.20;;;15.30;99.90;;;15.83;71.91;100960.22;4841613;29;20045;-84
2023/09/27 03:00:11;;;;;;;8.93;5.10;;;15.30;99.90;;;15.81;71.98;100956.09;4845263;29;20091;-84
2023/09/27 03:02:38;;;;;;;7.18;5.05;;;15.30;99.90;;;15.79;72.18;100956.34;4849414;29;20045;-84
2023/09/27 03:05:09;;;;;;;8.77;5.22;;;15.20;99.90;;;15.80;72.02;100952.59;4869845;29;20071;-85
2023/09/27 03:07:39;;;;;;;7.80;5.28;;;15.30;99.90;;;15.80;71.86;100947.22;4841054;29;20058;-84
2023/09/27 03:10:10;;;;;;;6.90;5.22;;;15.20;99.90;;;15.80;71.97;100941.84;4841788;29;20078;-85
2023/09/27 03:12:40;;;;;;;8.73;5.07;;;15.20;99.90;;;15.80;71.84;100957.16;4849535;29;20101;-84
2023/09/27 03:15:11;;;;;;;8.38;5.15;;;15.20;99.90;;;15.77;71.37;100944.19;4850189;29;20050;-85
2023/09/27 03:17:40;;;;;;;10.60;5.03;;;15.20;99.90;;;15.71;71.17;100945.94;4853040;29;20045;-85
2023/09/27 03:20:15;;;;;;;7.30;4.82;;;15.10;99.90;;;15.67;71.09;100948.28;4862032;29;20517;-84
2023/09/27 03:22:45;;;;;;;7.75;4.70;;;15.10;99.90;;;15.63;70.82;100954.31;4863318;29;20053;-84
2023/09/27 03:25:13;;;;;;;7.60;5.00;;;15.00;99.90;;;15.62;70.76;100944.63;4839574;29;20500;-84
2023/09/27 03:27:40;;;;;;;8.38;4.25;;;15.00;99.90;;;15.56;70.52;100946.34;4844157;29;20053;-84
2023/09/27 03:30:10;;;;;;;8.18;5.10;;;15.00;99.90;;;15.55;70.50;100949.28;4857481;29;20045;-84
2023/09/27 03:32:40;;;;;;;8.48;5.15;;;15.00;99.90;;;15.55;70.60;100957.34;4853432;29;20072;-84
2023/09/27 03:35:10;;;;;;;7.32;5.07;;;15.00;99.90;;;15.52;70.78;100955.97;4865694;29;20049;-85
2023/09/27 03:37:38;;;;;;;7.13;5.13;;;14.90;99.90;;;15.51;70.25;100966.91;4849936;29;20513;-84
2023/09/27 03:40:13;;;;;;;6.63;4.97;;;14.90;99.90;;;15.46;70.34;100957.69;4848947;29;20486;-84
2023/09/27 03:42:43;;;;;;;7.93;5.13;;;14.90;99.90;;;15.43;70.20;100955.47;4854393;29;20469;-84
2023/09/27 03:45:14;;;;;;;7.30;4.55;;;14.80;99.90;;;15.40;69.98;100952.41;4853730;29;20048;-84
2023/09/27 03:47:42;;;;;;;7.43;4.82;;;14.80;99.90;;;15.37;70.41;100947.50;4852319;29;20067;-84
2023/09/27 03:50:12;;;;;;;7.32;4.70;;;14.80;99.90;;;15.37;70.15;100948.34;4841518;29;20140;-85
2023/09/27 03:52:41;;;;;;;6.45;4.32;;;14.80;99.90;;;15.37;70.16;100942.13;4862253;29;20041;-84
2023/09/27 03:55:15;;;;;;;6.60;4.32;;;14.80;99.90;;;15.35;69.96;100944.22;4840861;29;20418;-85
2023/09/27 03:57:42;;;;;;;7.57;4.45;;;14.80;99.90;;;15.33;70.04;100944.47;4845355;29;20421;-86
2023/09/27 04:00:14;;;;;;;9.00;4.70;;;14.80;99.90;;;15.34;70.10;100942.59;4857952;29;20057;-83
2023/09/27 04:02:46;;;;;;;8.45;4.60;;;14.70;99.90;;;15.32;70.09;100948.19;4834298;29;20049;-83
2023/09/27 04:05:16;;;;;;;6.03;4.32;;;14.70;99.90;;;15.30;70.28;100949.47;4861945;29;20630;-83
2023/09/27 04:07:44;;;;;;;7.65;4.53;;;14.70;99.90;;;15.29;70.16;100954.03;4847572;29;20150;-85
2023/09/27 04:10:19;;;;;;;7.25;4.55;;;14.70;99.90;;;15.26;70.36;100954.47;4862925;29;20140;-86
2023/09/27 04:12:47;;;;;;;6.97;4.78;;;14.70;99.90;;;15.25;70.27;100955.53;4847630;29;20046;-86
2023/09/27 04:15:16;;;;;;;6.97;4.78;;;14.70;99.90;;;15.24;70.10;100947.72;4856342;29;20037;-85
2023/09/27 04:17:44;;;;;;;10.07;4.50;;;14.60;99.90;;;15.23;70.13;100967.59;4848549;29;20041;-86
2023/09/27 04:20:17;;;;;;;10.68;4.72;;;14.60;99.90;;;15.21;70.06;100962.41;4872790;29;20057;-87
2023/09/27 04:22:49;;;;;;;8.27;4.30;;;14.60;99.90;;;15.19;70.10;100965.34;4838019;29;20440;-85
2023/09/27 04:25:19;;;;;;;9.35;4.82;;;14.60;99.90;;;15.17;70.01;100963.91;4869863;29;20585;-85
2023/09/27 04:27:50;;;;;;;6.07;4.40;;;14.60;99.90;;;15.17;70.03;100959.38;4832136;29;20156;-84
2023/09/27 04:30:19;;;;;;;8.82;4.80;;;14.60;99.90;;;15.16;70.08;100959.59;4854639;29;20063;-85
2023/09/27 04:32:50;;;;;;;9.65;4.82;;;14.60;99.90;;;15.14;70.02;100964.41;4866405;29;20042;-85
2023/09/27 04:35:18;;;;;;;8.15;4.68;;;14.50;99.90;;;15.14;70.08;100959.84;4824740;29;20164;-84
2023/09/27 04:37:46;;;;;;;12.10;5.13;;;14.50;99.90;;;15.11;70.24;100959.47;4844149;29;20057;-86
2023/09/27 04:40:14;;;;;;;6.70;4.63;;;14.50;99.90;;;15.10;70.20;100957.84;4832386;29;20057;-86
2023/09/27 04:42:45;;;;;;;9.65;4.60;;;14.50;99.90;;;15.08;70.02;100970.66;4861970;29;20045;-87
2023/09/27 04:45:14;;;;;;;8.25;4.80;;;14.40;99.90;;;15.04;70.04;100981.06;4842257;29;20128;-85
2023/09/27 04:47:44;;;;;;;7.20;4.50;;;14.50;99.90;;;15.04;70.18;100991.81;4846567;29;20515;-82
2023/09/27 04:50:25;;;;;;;9.27;4.67;;;14.50;99.90;;;15.03;70.26;100984.81;4866594;29;20053;-84
2023/09/27 04:52:53;;;;;;;;;;;14.50;99.90;;;15.03;70.25;100983.97;4870774;29;20049;-84
2023/09/27 04:55:21;;;;;;;8.30;4.68;;;14.50;99.90;;;15.00;70.28;100977.19;4854152;29;20358;-84
2023/09/27 04:57:51;;;;;;;7.28;4.88;;;14.40;99.90;;;14.98;70.21;100978.44;4845401;29;20049;-84
2023/09/27 05:00:19;;;;;;;8.55;4.85;;;14.40;99.90;;;15.00;70.28;100973.69;4846023;29;20045;-84
2023/09/27 05:02:46;;;;;;;7.07;4.65;;;14.40;99.90;;;14.98;70.05;100973.91;4870282;29;20040;-84
2023/09/27 05:05:14;;;;;;;7.47;4.75;;;14.40;99.90;;;14.99;70.12;100980.13;4868775;29;20065;-84
2023/09/27 05:07:43;;;;;;;7.60;4.97;;;14.30;99.90;;;14.96;69.79;100978.69;4862561;29;20053;-84
2023/09/27 05:10:12;;;;;;;7.55;4.38;;;14.40;99.90;;;14.91;69.58;100984.75;4859198;29;20101;-84
2023/09/27 05:12:40;;;;;;;8.55;4.95;;;14.30;99.90;;;14.89;69.50;100988.72;4852959;29;20123;-89
2023/09/27 05:15:10;;;;;;;7.85;5.22;;;14.30;99.90;;;14.87;69.50;100983.56;4847221;29;20057;-87
2023/09/27 05:17:38;;;;;;;9.20;4.78;;;14.30;99.90;;;14.84;69.41;100983.22;4867441;29;20053;-85
2023/09/27 05:20:10;;;;;;;7.38;4.78;;;14.20;99.90;;;14.80;69.21;100987.38;4859920;29;20207;-85
2023/09/27 05:22:37;;;;;;;9.50;5.07;;;14.20;99.90;;;14.79;69.38;100983.06;4837876;29;20528;-85
2023/09/27 05:25:07;;;;;;;10.30;4.60;;;14.20;99.90;;;14.76;69.35;100984.31;4870963;29;20057;-85
2023/09/27 05:27:35;;;;;;;9.43;4.70;;;14.10;99.90;;;14.73;69.15;100979.41;4850430;29;20140;-85
2023/09/27 05:30:03;;;;;;;6.60;4.45;;;14.10;99.90;;;14.69;69.29;100983.59;4863236;29;20069;-85
2023/09/27 05:32:32;;;;;;;7.55;4.50;;;14.10;99.90;;;14.70;69.43;100984.41;4847239;29;20156;-85
2023/09/27 05:35:00;;;;;;;6.32;4.68;;;14.10;99.90;;;14.71;69.45;100986.06;4821806;29;20051;-85
2023/09/27 05:37:28;;;;;;;5.88;4.47;;;14.10;99.90;;;14.67;69.36;100975.75;4871367;29;20057;-84
2023/09/27 05:39:56;;;;;;;6.85;4.32;;;14.10;99.90;;;14.66;69.21;100973.31;4849821;29;20454;-85
2023/09/27 05:42:24;;;;;;;6.55;4.32;;;14.10;99.90;;;14.65;69.21;100967.13;4864828;29;20136;-85
2023/09/27 05:44:52;;;;;;;6.90;4.85;;;14.00;99.90;;;14.66;69.46;100979.50;4855123;29;20093;-85
2023/09/27 05:47:20;;;;;;;9.68;4.95;;;14.10;99.90;;;14.65;69.55;100999.34;4871286;29;20077;-85
2023/09/27 05:49:49;;;;;;;7.32;5.07;;;14.10;99.90;;;14.66;69.74;100998.28;4868326;29;20052;-85
2023/09/27 05:52:19;;;;;;;10.82;4.63;;;14.10;99.90;;;14.68;69.95;101012.28;4866559;29;20041;-85
2023/09/27 05:54:47;;;;;;;8.27;4.53;;;14.10;99.90;;;14.68;69.73;101006.91;4868600;29;20060;-85
2023/09/27 05:57:14;;;;;;;9.63;4.70;;;14.10;99.90;;;14.73;69.66;101002.75;4851818;29;20052;-85
2023/09/27 05:59:44;;;;;;;10.27;4.82;;;14.10;99.90;;;14.77;69.64;100993.19;4877102;29;20053;-85
2023/09/27 06:02:16;;;;;;;7.65;4.75;;;14.20;99.90;;;14.78;69.86;100994.84;4867461;29;20502;-85
2023/09/27 06:04:45;;;;;;;9.48;4.85;;;14.20;99.90;;;14.76;70.02;100989.69;4866285;29;20057;-85
2023/09/27 06:07:15;;;;;;;9.75;4.85;;;14.20;99.90;;;14.75;70.24;100993.44;4858836;29;20049;-85
2023/09/27 06:09:43;;;;;;;9.35;5.10;;;14.20;99.90;;;14.78;70.64;101002.88;4843341;29;20509;-85
2023/09/27 06:12:12;;;;;;;9.57;5.25;;;14.20;99.90;;;14.80;71.05;101012.38;4847455;29;20045;-85
2023/09/27 06:14:41;;;;;;;8.98;4.88;;;14.30;99.90;;;14.80;71.03;101017.75;4844216;29;20061;-85
2023/09/27 06:17:15;;;;;;;9.60;4.80;;;14.30;99.90;;;14.83;71.28;101027.19;4859281;29;20053;-85
2023/09/27 06:19:43;;;;;;;7.88;5.05;;;14.30;99.90;;;14.84;71.60;101027.00;4824402;29;20512;-85
2023/09/27 06:22:13;;;;;;;8.52;4.80;;;14.30;99.90;;;14.88;71.75;101020.13;4861198;29;20084;-85
2023/09/27 06:24:42;;;;;;;6.28;4.57;;;14.30;99.90;;;14.94;72.01;101021.91;4855917;29;20117;-85
2023/09/27 06:27:11;;;;;;;10.20;5.95;;;14.40;99.90;;;14.99;72.21;101009.66;4845573;29;20045;-85
2023/09/27 06:29:38;;;;;;;8.02;5.40;;;14.50;99.90;;;15.06;72.44;101019.25;4821246;29;20070;-85
2023/09/27 06:32:06;;;;;;;9.70;5.53;;;14.60;99.90;;;15.12;73.33;101010.28;4848052;29;20426;-85
2023/09/27 06:34:35;;;;;;;8.10;5.57;;;14.70;99.90;;;15.19;73.69;101005.66;4838667;29;20061;-85
2023/09/27 06:37:03;;;;;;;9.25;5.28;;;14.80;99.90;;;15.24;73.89;101004.97;4866482;29;20037;-85
2023/09/27 06:39:32;;;;;;;8.68;5.57;;;14.90;99.90;;;15.33;73.95;100992.03;4836384;29;20069;-85
2023/09/27 06:42:02;;;;;;;7.47;5.85;;;15.00;99.90;;;15.39;74.71;101001.84;4862508;29;20412;-85
2023/09/27 06:44:33;;;;;;;8.45;5.72;;;15.00;99.90;;;15.41;75.27;101008.63;4845132;29;20152;-85
2023/09/27 06:47:02;;;;;;;12.43;6.57;;;15.10;99.90;;;15.43;74.69;101011.91;4845908;29;20045;-85
2023/09/27 06:49:30;;;;;;;11.32;6.03;;;15.10;99.90;;;15.46;74.83;101018.69;4813626;29;20072;-84
2023/09/27 06:51:57;;;;;;;9.13;5.90;;;15.10;99.90;;;15.48;75.28;101013.09;4851700;29;20136;-85
2023/09/27 06:54:25;;;;;;;8.48;5.60;;;15.10;99.90;;;15.49;75.79;101004.81;4867203;29;20128;-85
2023/09/27 06:56:53;;;;;;;9.32;6.05;;;15.10;99.90;;;15.50;75.94;100998.38;4853378;29;20053;-85
2023/09/27 06:59:22;;;;;;;9.73;6.70;;;15.10;99.90;;;15.50;75.88;100989.47;4843534;29;20046;-85
2023/09/27 07:01:50;;;;;;;12.52;7.60;;;15.20;99.90;;;15.50;75.57;100987.63;4863363;29;20050;-85
2023/09/27 07:04:18;;;;;;;12.38;7.03;;;15.20;99.90;;;15.50;75.51;101000.25;4853538;29;20049;-86
2023/09/27 07:06:46;;;;;;;12.25;7.05;;;15.20;99.90;;;15.51;75.20;100991.13;4848642;29;20053;-85
2023/09/27 07:09:16;;;;;;;12.90;6.93;;;15.20;99.90;;;15.54;75.78;101002.22;4847595;29;20041;-85
2023/09/27 07:11:44;;;;;;;11.27;6.78;;;15.20;99.90;;;15.54;75.74;100996.03;4866215;29;20061;-85
2023/09/27 07:14:12;;;;;;;12.68;6.90;;;15.20;99.90;;;15.55;75.87;101003.06;4831312;29;20124;-85
2023/09/27 07:16:41;;;;;;;12.05;6.50;;;15.20;99.90;;;15.56;76.04;101004.69;4845558;29;20109;-85
2023/09/27 07:19:09;;;;;;;12.75;7.25;;;15.20;99.90;;;15.57;76.08;101000.97;4846098;29;20086;-85
2023/09/27 07:21:37;;;;;;;14.35;7.20;;;15.20;99.90;;;15.56;75.81;100996.63;4845983;29;20056;-85
2023/09/27 07:24:05;;;;;;;14.77;7.50;;;15.20;99.90;;;15.58;75.74;100999.91;4829123;29;20081;-85
2023/09/27 07:26:32;;;;;;;12.80;7.03;;;15.20;99.90;;;15.61;75.50;100997.56;4844491;29;20482;-85
2023/09/27 07:29:01;;;;;;;15.77;7.78;;;15.30;99.90;;;15.65;75.48;100997.94;4845761;29;20050;-85
2023/09/27 07:31:29;;;;;;;18.10;7.70;;;15.30;99.90;;;15.67;75.50;101002.06;4856285;29;20050;-85
2023/09/27 07:33:58;;;;;;;12.68;6.88;;;15.30;99.90;;;15.69;75.27;101008.03;4833386;29;20129;-85
2023/09/27 07:36:26;;;;;;;13.77;7.18;;;15.30;99.90;;;15.70;75.53;101009.66;4847249;29;20232;-84
2023/09/27 07:38:55;;;;;;;11.15;7.55;;;15.40;99.90;;;15.75;75.58;101008.97;4863103;29;20120;-84
2023/09/27 07:41:23;;;;;;;13.98;7.00;;;15.40;99.90;;;15.80;76.18;101008.25;4837994;29;20050;-85
2023/09/27 07:43:50;;;;;;;12.48;7.45;;;15.50;99.90;;;15.84;76.44;101001.38;4842648;29;20395;-85
2023/09/27 07:46:19;;;;;;;17.95;7.10;;;15.50;99.90;;;15.91;76.00;101005.59;4844150;29;20056;-84
2023/09/27 07:48:46;;;;;;;13.45;6.90;;;15.60;99.90;;;15.97;75.62;101006.53;4854932;29;20505;-85
2023/09/27 07:51:18;;;;;;;13.00;6.43;;;15.70;99.90;;;16.02;75.42;100997.75;4846933;29;20195;-85
2023/09/27 07:53:46;;;;;;;9.60;7.22;;;15.70;99.90;;;16.07;75.20;101000.56;4862916;29;20139;-85
2023/09/27 07:56:20;;;;;;;10.10;7.07;;;15.80;99.90;;;16.15;75.57;100997.50;4847398;29;20189;-85
2023/09/27 07:58:51;;;;;;;15.43;7.25;;;16.00;99.90;;;16.23;77.25;101000.66;4862310;29;20137;-84
2023/09/27 08:01:20;;;;;;;;;;;16.10;99.90;;;16.33;78.00;100997.38;4846887;29;20132;-84
2023/09/27 08:03:51;;;;;;;19.27;7.38;;;16.20;99.90;;;16.37;78.07;100986.97;4863394;29;20474;-84
2023/09/27 08:06:21;;;;;;;12.68;7.60;;;16.30;99.90;;;16.44;77.84;100983.06;4863613;29;20054;-84
2023/09/27 08:08:51;;;;;;;18.10;8.07;;;16.40;99.90;;;16.52;78.50;100987.28;4846672;29;20466;-84
2023/09/27 08:11:19;;;;;;;14.48;7.53;;;16.50;99.90;;;16.59;78.73;100970.97;4863681;29;20060;-84
2023/09/27 08:13:46;;;;;;;15.73;8.10;;;16.60;99.90;;;16.65;78.14;100967.34;4847163;29;20141;-84
2023/09/27 08:16:13;;;;;;;13.02;7.40;;;16.70;99.90;;;16.68;77.55;100970.38;4863498;29;20052;-84
2023/09/27 08:18:42;;;;;;;11.93;6.68;;;16.70;99.90;;;16.79;78.16;100975.97;4831303;29;20126;-84
2023/09/27 08:21:10;;;;;;;12.57;7.35;;;16.80;99.90;;;16.84;77.17;100982.31;4863441;29;20121;-84
2023/09/27 08:23:40;;;;;;;13.68;6.68;;;16.90;99.90;;;16.87;76.95;100984.50;4831478;29;20049;-84
2023/09/27 08:26:07;;;;;;;13.85;7.07;;;17.00;99.90;;;16.95;77.97;100988.72;4831597;29;20045;-85
2023/09/27 08:28:37;;;;;;;9.10;6.43;;;17.10;99.90;;;17.03;78.66;100980.25;4862896;29;20484;-84
2023/09/27 08:31:06;;;;;;;9.75;6.38;;;17.20;99.90;;;17.06;77.14;100976.22;4831437;29;20619;-84
2023/09/27 08:33:33;;;;;;;16.40;6.35;;;17.20;99.90;;;17.20;78.65;100964.91;4832065;29;20046;-84
2023/09/27 08:36:00;;;;;;;14.32;6.32;;;17.30;99.90;;;17.34;79.81;100964.59;4863042;29;20101;-84
2023/09/27 08:38:28;;;;;;;13.05;6.45;;;17.50;99.90;;;17.38;77.83;100961.19;4863018;29;20045;-84
2023/09/27 08:40:57;;;;;;;11.23;5.60;;;17.50;99.90;;;17.41;77.28;100967.94;4846345;29;20233;-84
2023/09/27 08:43:26;;;;;;;11.30;6.38;;;17.60;99.90;;;17.44;76.90;100968.28;4846039;29;20037;-85
2023/09/27 08:45:54;;;;;;;10.10;5.70;;;17.60;99.90;;;17.49;76.39;100964.84;4862618;29;20088;-84
2023/09/27 08:48:24;;;;;;;11.10;6.03;;;17.60;99.90;;;17.54;76.60;100964.13;4862633;29;20557;-84
2023/09/27 08:50:55;;;;;;;8.48;5.78;;;17.70;99.90;;;17.57;76.97;100955.53;4846128;29;20054;-84
2023/09/27 08:53:24;;;;;;;10.68;5.75;;;17.70;99.90;;;17.58;76.18;100944.50;4846548;29;20046;-84
2023/09/27 08:55:52;;;;;;;12.45;5.25;;;17.70;99.90;;;17.64;75.26;100940.00;4846355;29;20064;-84
2023/09/27 08:58:24;;;;;;;12.30;5.05;;;17.80;99.90;;;17.70;74.14;100941.72;4862558;29;20056;-84
2023/09/27 09:00:52;;;;;;;12.48;5.70;;;17.80;99.90;;;17.72;74.07;100935.03;4845772;29;20050;-84
2023/09/27 09:03:21;;;;;;;11.90;5.90;;;17.90;99.90;;;17.78;74.21;100935.94;4862205;29;20049;-84
2023/09/27 09:05:49;;;;;;;10.43;5.40;;;17.90;99.90;;;17.88;74.81;100932.56;4862708;29;20121;-84
2023/09/27 09:08:18;;;;;;;10.57;5.45;;;18.00;99.90;;;17.92;73.19;100923.72;4830667;29;20547;-84
2023/09/27 09:10:45;;;;;;;12.75;4.43;;;18.10;99.90;;;18.01;73.34;100933.03;4862300;29;20049;-84
2023/09/27 09:13:21;;;;;;;8.45;4.70;;;18.20;99.90;;;18.09;72.40;100934.47;4845047;29;20486;-84
2023/09/27 09:15:51;;;;;;;7.78;4.43;;;18.30;99.90;;;18.13;72.01;100932.09;4845770;29;20624;-85
2023/09/27 09:18:31;;;;;;;10.18;4.97;;;18.40;99.90;;;18.20;72.21;100932.72;4862358;29;20111;-84
2023/09/27 09:21:08;;;;;;;11.20;4.90;;;18.50;99.90;;;18.26;72.12;100927.16;4862555;29;20046;-84
2023/09/27 09:23:37;;;;;;;9.48;5.00;;;18.60;99.90;;;18.40;71.53;100924.91;4847832;29;20053;-85
2023/09/27 09:26:06;;;;;;;14.10;5.60;;;18.70;99.90;;;18.46;71.66;100921.19;4846011;29;20105;-84
2023/09/27 09:28:36;;;;;;;9.55;4.95;;;18.80;99.90;;;18.50;71.33;100921.50;4845453;29;20050;-84
2023/09/27 09:31:05;;;;;;;7.80;5.00;;;18.80;99.90;;;18.56;71.54;100919.66;4845588;29;20046;-84
2023/09/27 09:33:37;;;;;;;8.32;4.72;;;18.90;99.90;;;18.62;70.84;100913.25;4829763;29;20103;-84
2023/09/27 09:36:05;;;;;;;9.25;4.05;;;18.90;99.90;;;18.70;69.90;100920.94;4861831;29;20041;-84
2023/09/27 09:38:34;;;;;;;10.82;3.90;;;19.00;99.90;;;18.80;68.29;100918.34;4861796;29;20045;-84
2023/09/27 09:41:02;;;;;;;11.40;4.38;;;19.10;99.90;;;18.92;67.89;100929.78;4862097;29;20049;-84
2023/09/27 09:43:35;;;;;;;6.65;3.58;;;19.20;99.90;;;18.96;65.47;100925.50;4830156;29;20046;-84
2023/09/27 09:46:06;;;;;;;6.75;3.47;;;19.30;99.90;;;19.01;65.16;100925.56;4829930;29;20053;-84
2023/09/27 09:48:35;;;;;;;7.40;3.30;;;19.40;99.90;;;19.12;64.70;100922.94;4861759;29;20055;-84
2023/09/27 09:51:07;;;;;;;8.77;3.72;;;19.50;99.90;;;19.18;66.17;100928.16;4861689;29;20102;-85
2023/09/27 09:53:40;;;;;;;9.50;4.10;;;19.50;99.90;;;19.21;65.65;100927.63;4861863;29;20128;-84
2023/09/27 09:56:08;;;;;;;5.82;3.58;;;19.50;99.90;;;19.30;66.63;100917.97;4845207;29;20077;-84
2023/09/27 09:58:42;;;;;;;8.63;4.00;;;19.70;99.90;;;19.33;65.18;100915.84;4841275;29;20478;-84
2023/09/27 10:01:19;;;;;;;10.05;4.28;;;19.70;99.90;;;19.35;64.35;100913.69;4843002;29;20052;-84
2023/09/27 10:03:49;;;;;;;7.75;3.80;;;19.70;99.90;;;19.39;66.18;100912.91;4841437;29;20094;-84
2023/09/27 10:06:20;;;;;;;9.18;3.60;;;19.80;99.90;;;19.42;65.39;100901.59;4811797;29;20053;-85
2023/09/27 10:08:48;;;;;;;6.93;3.70;;;19.80;99.90;;;19.49;65.33;100907.56;4826843;29;20057;-85
2023/09/27 10:11:17;;;;;;;7.57;3.30;;;19.90;99.90;;;19.51;62.64;100910.00;4842919;29;20054;-84
2023/09/27 10:13:47;;;;;;;7.78;3.15;;;19.80;99.90;;;19.52;61.68;100904.38;4842781;29;20064;-85
2023/09/27 10:16:22;;;;;;;7.05;3.63;;;19.90;99.90;;;19.53;60.00;100916.81;4826537;29;20502;-84
2023/09/27 10:18:49;;;;;;;6.80;3.30;;;19.90;99.90;;;19.59;60.32;100906.03;4826418;29;20114;-84